Time;durP1;ratioP1;P1;durP2;ratioP2;P2;SDS_P1;SDS_P2;PMS_P1;PMS_P2;Temp;Humidity;BMP_temperature;BMP_pressure;BME280_temperature;BME280_humidity;BME280_pressure;Samples;Min_cycle;Max_cycle;Signal;HPM_P1;HPM_P2
2022/02/18 00:00:54;;;;;;;5.53;1.37;;;;;;;5.02;86.42;98913.82;1646867;85;25902;-79
2022/02/18 00:03:22;;;;;;;4.15;1.47;;;;;;;5.01;86.38;98910.84;1641780;86;25941;-79
2022/02/18 00:05:48;;;;;;;3.30;1.30;;;;;;;5.01;86.12;98919.30;1642130;85;28372;-78
2022/02/18 00:08:15;;;;;;;3.50;1.15;;;;;;;5.00;86.09;98916.34;1636241;86;26534;-79
2022/02/18 00:10:42;;;;;;;4.55;1.30;;;;;;;4.99;86.02;98932.77;1633159;86;25923;-79
2022/02/18 00:13:09;;;;;;;6.75;1.17;;;;;;;4.98;85.85;98931.64;1637906;85;25960;-79
2022/02/18 00:15:36;;;;;;;3.17;1.00;;;;;;;4.96;86.05;98923.84;1640517;86;25778;-78
2022/02/18 00:18:02;;;;;;;2.87;1.22;;;;;;;4.95;85.94;98934.16;1636583;85;27487;-78
2022/02/18 00:20:32;;;;;;;3.80;1.07;;;;;;;4.97;86.15;98931.31;1639757;86;26521;-79
2022/02/18 00:23:05;;;;;;;4.42;1.07;;;;;;;4.96;86.13;98938.44;1648283;86;26113;-79
2022/02/18 00:25:34;;;;;;;5.55;1.80;;;;;;;4.97;85.99;98945.41;1638829;85;26577;-78
2022/02/18 00:28:02;;;;;;;3.72;1.02;;;;;;;4.98;85.96;98947.06;1642033;86;25847;-79
2022/02/18 00:30:29;;;;;;;6.78;1.32;;;;;;;4.97;85.61;98944.08;1640343;86;28300;-79
2022/02/18 00:32:58;;;;;;;8.18;1.45;;;;;;;4.99;85.44;98955.32;1637746;85;25895;-79
2022/02/18 00:35:25;;;;;;;3.37;1.20;;;;;;;5.00;85.24;98956.98;1640509;85;25885;-78
2022/02/18 00:37:54;;;;;;;5.97;1.27;;;;;;;5.03;85.18;98965.03;1641477;86;26463;-80
2022/02/18 00:40:22;;;;;;;6.15;1.90;;;;;;;5.04;85.11;98965.37;1639915;86;26480;-79
2022/02/18 00:42:50;;;;;;;7.22;1.70;;;;;;;5.03;85.09;98970.34;1615678;86;27642;-80
2022/02/18 00:45:16;;;;;;;5.75;1.92;;;;;;;5.01;85.23;98979.83;1642061;86;26593;-79
2022/02/18 00:47:42;;;;;;;6.00;2.33;;;;;;;5.01;85.24;98977.17;1636868;86;25801;-79
2022/02/18 00:50:09;;;;;;;5.75;2.27;;;;;;;4.98;85.27;98975.42;1640113;85;25941;-78
2022/02/18 00:52:35;;;;;;;8.20;2.55;;;;;;;4.96;85.44;98975.59;1648691;86;26297;-79
2022/02/18 00:55:02;;;;;;;8.73;3.33;;;;;;;4.96;85.58;98984.08;1641835;86;28095;-80
2022/02/18 00:57:30;;;;;;;7.78;2.00;;;;;;;4.93;85.65;98978.64;1642347;86;25904;-79
2022/02/18 00:59:56;;;;;;;10.20;2.37;;;;;;;4.92;85.59;98982.81;1647701;86;26157;-79
2022/02/18 01:02:24;;;;;;;8.38;1.82;;;;;;;4.91;85.62;98981.99;1641254;85;26356;-79
2022/02/18 01:04:51;;;;;;;8.08;1.47;;;;;;;4.88;85.91;98978.88;1641703;85;26575;-79
2022/02/18 01:07:18;;;;;;;9.93;1.75;;;;;;;4.85;86.22;98991.21;1640299;86;28069;-79
2022/02/18 01:09:45;;;;;;;5.97;1.65;;;;;;;4.80;86.43;98986.97;1643272;86;25955;-78
2022/02/18 01:12:11;;;;;;;11.33;2.58;;;;;;;4.77;86.38;98988.69;1632789;86;26697;-79
2022/02/18 01:14:39;;;;;;;8.93;1.80;;;;;;;4.74;86.40;98981.09;1639206;86;25967;-79
2022/02/18 01:17:05;;;;;;;7.30;1.95;;;;;;;4.73;86.40;99003.34;1636759;86;26488;-81
2022/02/18 01:19:32;;;;;;;8.20;2.17;;;;;;;4.71;86.28;99000.85;1642487;85;27519;-79
2022/02/18 01:22:00;;;;;;;6.65;2.00;;;;;;;4.71;86.16;99002.18;1637524;86;25877;-79
2022/02/18 01:24:27;;;;;;;5.42;1.57;;;;;;;4.72;86.14;99006.98;1640524;86;25791;-80
2022/02/18 01:26:54;;;;;;;10.93;1.90;;;;;;;4.72;85.96;99009.14;1642506;86;25858;-79
2022/02/18 01:29:21;;;;;;;6.55;1.62;;;;;;;4.73;85.74;99002.81;1643189;86;26192;-79
2022/02/18 01:31:48;;;;;;;7.05;2.20;;;;;;;4.76;85.58;99002.95;1640825;86;27467;-78
2022/02/18 01:34:14;;;;;;;4.95;1.70;;;;;;;4.76;85.36;98999.80;1641874;86;25839;-79
2022/02/18 01:36:41;;;;;;;9.50;1.85;;;;;;;4.76;84.82;98998.47;1637667;85;25760;-79
2022/02/18 01:39:07;;;;;;;10.30;2.70;;;;;;;4.77;84.70;99014.69;1635305;86;25850;-79
2022/02/18 01:41:33;;;;;;;5.28;1.37;;;;;;;4.78;84.40;99015.52;1637340;86;25868;-79
2022/02/18 01:44:03;;;;;;;8.05;2.08;;;;;;;4.80;84.75;99021.45;1647707;85;27487;-78
2022/02/18 01:46:29;;;;;;;10.53;2.02;;;;;;;4.81;84.42;99021.28;1636396;86;26375;-80
2022/02/18 01:48:55;;;;;;;7.55;1.98;;;;;;;4.82;84.26;99021.58;1642166;86;25814;-79
2022/02/18 01:51:24;;;;;;;11.38;2.00;;;;;;;4.83;83.67;99027.72;1637085;86;25800;-79
2022/02/18 01:53:53;;;;;;;6.08;1.72;;;;;;;4.84;83.74;99020.06;1636905;86;25774;-82
2022/02/18 01:56:22;;;;;;;15.80;3.72;;;;;;;4.85;83.57;99019.06;1635054;86;27492;-79
2022/02/18 01:58:48;;;;;;;9.73;2.35;;;;;;;4.87;83.49;99027.66;1641218;86;25902;-79
2022/02/18 02:01:15;;;;;;;5.85;2.12;;;;;;;4.87;83.13;99017.05;1644816;85;25798;-78
2022/02/18 02:03:42;;;;;;;7.00;2.25;;;;;;;4.90;82.98;99027.29;1644091;85;25720;-80
2022/02/18 02:06:12;;;;;;;7.30;2.15;;;;;;;4.91;82.64;99024.94;1625750;86;25889;-78
2022/02/18 02:08:38;;;;;;;12.07;2.83;;;;;;;4.93;82.70;99021.59;1616220;86;27487;-79
2022/02/18 02:11:04;;;;;;;8.35;2.20;;;;;;;4.94;82.43;99020.59;1665610;85;25957;-80
2022/02/18 02:13:39;;;;;;;9.38;2.87;;;;;;;4.95;82.64;99020.39;1649155;85;25922;-78
2022/02/18 02:16:11;;;;;;;7.55;1.90;;;;;;;4.97;82.50;99036.12;1648251;85;26525;-79
2022/02/18 02:18:37;;;;;;;12.50;2.42;;;;;;;4.97;82.88;99022.84;1650073;85;25839;-78
2022/02/18 02:21:04;;;;;;;9.13;1.60;;;;;;;4.96;83.04;99022.02;1638756;87;27467;-78
2022/02/18 02:23:33;;;;;;;4.33;1.52;;;;;;;4.95;82.40;99025.70;1664612;85;25826;-78
2022/02/18 02:26:00;;;;;;;12.78;2.55;;;;;;;4.95;82.31;99028.36;1667548;85;25943;-78
2022/02/18 02:28:28;;;;;;;6.67;1.67;;;;;;;4.95;82.57;99037.64;1643960;85;26328;-78
2022/02/18 02:30:56;;;;;;;10.28;1.92;;;;;;;4.96;82.63;99037.94;1638404;86;26068;-78
2022/02/18 02:33:22;;;;;;;7.12;2.37;;;;;;;4.96;82.42;99032.63;1632458;86;27477;-78
2022/02/18 02:35:50;;;;;;;8.83;2.75;;;;;;;4.96;82.38;99039.80;1606894;86;25904;-78
2022/02/18 02:38:16;;;;;;;6.75;1.60;;;;;;;4.97;82.13;99040.09;1625306;87;25869;-79
2022/02/18 02:40:45;;;;;;;6.70;1.47;;;;;;;4.95;82.36;99042.12;1650996;85;25836;-77
2022/02/18 02:43:11;;;;;;;6.75;1.60;;;;;;;4.92;82.26;99053.92;1646148;85;26265;-78
2022/02/18 02:45:38;;;;;;;6.90;1.92;;;;;;;4.93;82.49;99040.16;1648223;85;27443;-79
2022/02/18 02:48:06;;;;;;;9.28;2.27;;;;;;;4.92;82.24;99055.78;1638388;87;25831;-78
2022/02/18 02:50:40;;;;;;;6.28;1.35;;;;;;;4.92;82.60;99061.08;1631979;86;25370;-78
2022/02/18 02:53:06;;;;;;;3.95;1.22;;;;;;;4.92;82.36;99071.17;1621878;86;25973;-77
2022/02/18 02:55:33;;;;;;;10.85;2.37;;;;;;;4.90;82.15;99074.52;1640704;86;25883;-78
2022/02/18 02:58:02;;;;;;;8.88;1.70;;;;;;;4.90;82.50;99075.05;1632160;86;28390;-78
2022/02/18 03:00:28;;;;;;;5.75;1.90;;;;;;;4.88;82.74;99077.03;1626924;86;25873;-77
2022/02/18 03:02:55;;;;;;;6.17;1.70;;;;;;;4.86;82.72;99079.88;1635539;86;25826;-78
2022/02/18 03:05:23;;;;;;;8.30;1.80;;;;;;;4.86;82.30;99093.14;1635003;86;26281;-78
2022/02/18 03:07:52;;;;;;;14.10;3.08;;;;;;;4.88;82.44;99104.89;1639901;85;25938;-79
2022/02/18 03:10:20;;;;;;;8.45;1.85;;;;;;;4.88;82.25;99094.28;1634200;86;28365;-77
2022/02/18 03:12:46;;;;;;;14.87;2.05;;;;;;;4.88;81.56;99088.97;1636075;86;25840;-79
2022/02/18 03:15:14;;;;;;;12.47;2.10;;;;;;;4.88;81.01;99101.73;1632900;86;26440;-79
2022/02/18 03:17:41;;;;;;;17.37;3.05;;;;;;;4.90;80.87;99109.01;1638089;86;25999;-78
2022/02/18 03:20:15;;;;;;;10.13;1.95;;;;;;;4.91;80.17;99114.64;1633470;85;25818;-79
2022/02/18 03:22:43;;;;;;;11.83;2.77;;;;;;;4.92;79.41;99103.53;1636434;86;27541;-78
2022/02/18 03:27:42;;;;;;;10.90;1.82;;;;;;;4.98;79.31;99122.19;1766780;79;25658;-78
2022/02/18 03:30:11;;;;;;;9.70;1.92;;;;;;;4.94;79.72;99128.84;1764742;80;25293;-78
2022/02/18 03:32:38;;;;;;;8.90;1.82;;;;;;;4.93;79.54;99117.94;1763643;80;27534;-78
2022/02/18 03:35:06;;;;;;;11.03;1.85;;;;;;;4.93;78.97;99129.04;1739061;80;25756;-78
2022/02/18 03:37:40;;;;;;;8.85;1.65;;;;;;;4.94;79.33;99126.72;1703191;82;25875;-78
2022/02/18 03:40:12;;;;;;;5.53;1.90;;;;;;;4.94;78.62;99126.72;1710489;83;25830;-78
2022/02/18 03:42:39;;;;;;;10.28;2.02;;;;;;;4.94;78.87;99134.16;1678468;83;25781;-78
2022/02/18 03:45:07;;;;;;;7.45;1.60;;;;;;;4.94;78.22;99139.45;1706012;83;28039;-80
2022/02/18 03:47:33;;;;;;;8.80;1.87;;;;;;;4.94;78.31;99142.64;1705993;83;26209;-78
2022/02/18 03:50:01;;;;;;;7.05;2.08;;;;;;;4.93;77.92;99137.83;1708585;83;25877;-78
2022/02/18 03:52:27;;;;;;;9.65;2.08;;;;;;;4.96;77.94;99161.84;1682583;83;25996;-77
2022/02/18 03:54:53;;;;;;;10.53;2.22;;;;;;;4.96;77.40;99170.61;1707808;83;25701;-78
2022/02/18 03:57:20;;;;;;;9.00;2.12;;;;;;;4.98;77.98;99169.95;1673445;83;28102;-78
2022/02/18 03:59:47;;;;;;;7.05;2.27;;;;;;;4.99;78.17;99180.03;1706294;83;25817;-79
2022/02/18 04:02:13;;;;;;;11.60;2.40;;;;;;;5.00;77.34;99194.96;1705882;83;25878;-78
2022/02/18 04:04:39;;;;;;;8.78;2.20;;;;;;;4.99;77.28;99180.86;1713392;83;25979;-78
2022/02/18 04:07:16;;;;;;;9.58;1.75;;;;;;;5.00;77.55;99198.94;1703112;82;25866;-79
2022/02/18 04:09:45;;;;;;;7.78;2.37;;;;;;;5.00;77.25;99207.73;1708632;82;27639;-79
2022/02/18 04:12:13;;;;;;;12.28;2.55;;;;;;;5.02;76.59;99195.10;1707872;82;25580;-78
2022/02/18 04:14:39;;;;;;;10.78;2.30;;;;;;;5.04;76.65;99217.46;1682219;83;25853;-78
2022/02/18 04:17:07;;;;;;;6.45;2.17;;;;;;;5.05;76.07;99208.48;1707130;83;25796;-79
2022/02/18 04:19:35;;;;;;;12.65;2.92;;;;;;;5.06;76.34;99218.92;1658376;85;25791;-78
2022/02/18 04:22:03;;;;;;;7.03;2.22;;;;;;;5.07;76.12;99236.48;1655714;85;27459;-78
2022/02/18 04:24:32;;;;;;;8.00;2.60;;;;;;;5.07;75.78;99228.52;1664977;83;26105;-79
2022/02/18 04:26:58;;;;;;;14.53;2.55;;;;;;;5.08;75.81;99249.25;1669622;84;25776;-78
2022/02/18 04:29:25;;;;;;;4.75;1.52;;;;;;;5.09;75.79;99240.30;1646449;86;25925;-78
2022/02/18 04:31:51;;;;;;;12.07;1.72;;;;;;;5.09;75.54;99248.27;1651347;85;26011;-79
2022/02/18 04:34:17;;;;;;;5.20;1.37;;;;;;;5.10;76.11;99255.20;1655008;85;28265;-79
2022/02/18 04:36:43;;;;;;;7.17;2.55;;;;;;;5.10;75.61;99267.14;1659377;84;25728;-79
2022/02/18 04:39:10;;;;;;;5.65;1.52;;;;;;;5.10;75.54;99265.81;1660002;85;26411;-78
2022/02/18 04:41:38;;;;;;;6.87;2.05;;;;;;;5.10;75.32;99277.27;1660121;85;26550;-77
2022/02/18 04:44:05;;;;;;;8.40;1.98;;;;;;;5.10;75.51;99290.53;1668633;84;25928;-79
2022/02/18 04:46:32;;;;;;;10.08;1.50;;;;;;;5.09;75.08;99284.09;1668713;84;28275;-78
2022/02/18 04:48:58;;;;;;;7.83;2.12;;;;;;;5.09;75.90;99290.20;1661437;85;25759;-78
2022/02/18 04:51:25;;;;;;;10.45;2.20;;;;;;;5.08;75.26;99297.03;1659088;85;25842;-78
2022/02/18 04:53:51;;;;;;;7.05;1.77;;;;;;;5.06;75.66;99299.87;1660933;84;26495;-78
2022/02/18 04:56:18;;;;;;;7.42;1.65;;;;;;;5.05;75.26;99307.50;1657928;85;25750;-78
2022/02/18 04:58:44;;;;;;;9.50;1.65;;;;;;;5.03;75.24;99311.34;1662083;85;26933;-78
2022/02/18 05:01:10;;;;;;;14.95;2.15;;;;;;;5.02;75.73;99313.69;1657971;85;25956;-78
2022/02/18 05:03:38;;;;;;;11.12;2.25;;;;;;;5.02;75.46;99318.99;1657817;85;25877;-78
2022/02/18 05:06:05;;;;;;;9.00;1.75;;;;;;;5.02;76.00;99324.30;1664118;85;25682;-79
2022/02/18 05:08:32;;;;;;;6.15;1.22;;;;;;;5.01;75.75;99320.81;1673757;84;25333;-78
2022/02/18 05:10:59;;;;;;;8.13;1.47;;;;;;;5.01;75.96;99337.23;1671149;84;27481;-78
2022/02/18 05:13:25;;;;;;;9.90;1.77;;;;;;;5.01;75.29;99335.41;1658045;85;25769;-79
2022/02/18 05:15:51;;;;;;;7.53;1.77;;;;;;;5.01;75.57;99344.70;1663676;85;25897;-78
2022/02/18 05:18:18;;;;;;;8.48;2.20;;;;;;;5.01;75.24;99342.05;1658606;84;25790;-80
2022/02/18 05:20:44;;;;;;;7.75;1.90;;;;;;;5.00;75.62;99352.36;1658883;85;25842;-78
2022/02/18 05:23:11;;;;;;;9.65;1.67;;;;;;;5.01;75.47;99354.48;1659817;85;27470;-80
2022/02/18 05:25:38;;;;;;;10.95;2.02;;;;;;;5.00;75.46;99344.89;1659527;85;25666;-78
2022/02/18 05:28:04;;;;;;;9.33;2.12;;;;;;;5.00;75.34;99344.89;1665664;84;25861;-77
2022/02/18 05:30:34;;;;;;;10.88;2.52;;;;;;;4.99;75.75;99358.66;1668909;84;25802;-78
2022/02/18 05:33:02;;;;;;;6.90;1.87;;;;;;;5.00;75.72;99355.01;1652932;85;26219;-77
2022/02/18 05:35:28;;;;;;;7.22;2.67;;;;;;;4.99;75.91;99359.98;1667026;84;27477;-79
2022/02/18 05:37:55;;;;;;;8.70;2.20;;;;;;;4.99;75.60;99365.28;1669364;84;26484;-79
2022/02/18 05:40:21;;;;;;;11.48;1.77;;;;;;;4.99;75.88;99369.27;1664235;84;26094;-79
2022/02/18 05:42:47;;;;;;;9.05;2.77;;;;;;;4.99;76.17;99379.05;1657320;84;25791;-78
2022/02/18 05:45:14;;;;;;;8.48;2.98;;;;;;;4.97;75.67;99382.39;1669558;84;25880;-79
2022/02/18 05:47:42;;;;;;;7.37;2.15;;;;;;;4.95;76.08;99377.27;1656855;84;28298;-78
2022/02/18 05:50:13;;;;;;;11.10;2.00;;;;;;;4.96;75.96;99388.72;1667763;84;25924;-78
2022/02/18 05:52:44;;;;;;;8.00;2.12;;;;;;;4.94;76.09;99392.05;1664844;85;25977;-78
2022/02/18 05:55:10;;;;;;;5.65;2.02;;;;;;;4.94;75.47;99393.38;1666008;84;26098;-78
2022/02/18 05:57:37;;;;;;;10.53;2.10;;;;;;;4.92;75.60;99404.16;1656548;84;25789;-78
2022/02/18 06:00:09;;;;;;;8.00;1.87;;;;;;;4.91;75.53;99402.52;1658057;85;28490;-78
2022/02/18 06:02:39;;;;;;;11.88;2.70;;;;;;;4.91;75.83;99401.69;1669531;85;25957;-79
2022/02/18 06:05:07;;;;;;;11.60;2.05;;;;;;;4.90;76.12;99414.13;1664106;85;25936;-78
2022/02/18 06:07:33;;;;;;;14.60;1.80;;;;;;;4.91;76.22;99410.48;1635275;85;25950;-78
2022/02/18 06:10:01;;;;;;;12.13;2.22;;;;;;;4.91;75.77;99409.65;1667839;84;25757;-81
2022/02/18 06:12:27;;;;;;;9.70;1.52;;;;;;;4.91;75.77;99419.77;1662617;85;28333;-78
2022/02/18 06:14:53;;;;;;;10.85;2.40;;;;;;;4.93;75.46;99422.23;1660437;84;25998;-78
2022/02/18 06:17:20;;;;;;;6.72;1.52;;;;;;;4.93;75.67;99420.91;1664721;85;25897;-78
2022/02/18 06:19:49;;;;;;;10.45;2.58;;;;;;;4.93;75.53;99424.88;1658215;84;25616;-78
2022/02/18 06:22:15;;;;;;;9.68;1.70;;;;;;;4.94;75.14;99426.02;1660565;85;25876;-80
2022/02/18 06:24:43;;;;;;;13.98;2.12;;;;;;;4.94;75.37;99427.34;1665257;84;27488;-78
2022/02/18 06:27:09;;;;;;;10.95;2.72;;;;;;;4.95;75.41;99430.84;1679933;84;25901;-78
2022/02/18 06:29:36;;;;;;;8.43;2.47;;;;;;;4.96;75.06;99428.52;1681588;84;26243;-78
2022/02/18 06:32:03;;;;;;;10.28;2.12;;;;;;;4.98;74.75;99442.43;1692630;84;25847;-79
2022/02/18 06:34:30;;;;;;;7.92;1.90;;;;;;;4.97;75.12;99436.30;1667327;84;25917;-77
2022/02/18 06:36:56;;;;;;;11.08;2.27;;;;;;;4.96;75.63;99441.79;1673770;84;27545;-78
2022/02/18 06:39:23;;;;;;;11.53;2.75;;;;;;;4.97;75.65;99446.08;1693275;84;25782;-80
2022/02/18 06:41:49;;;;;;;11.85;2.20;;;;;;;4.94;75.14;99444.59;1693622;83;25872;-79
2022/02/18 06:44:16;;;;;;;12.07;3.10;;;;;;;4.94;75.70;99450.43;1692642;84;26087;-78
2022/02/18 06:46:43;;;;;;;10.82;2.10;;;;;;;4.95;75.60;99450.24;1660073;84;25798;-79
2022/02/18 06:49:09;;;;;;;9.00;2.05;;;;;;;4.94;75.31;99453.88;1653855;85;28320;-79
2022/02/18 06:51:35;;;;;;;11.93;2.52;;;;;;;4.93;75.12;99458.88;1682941;84;25813;-77
2022/02/18 06:54:02;;;;;;;8.00;2.85;;;;;;;4.92;75.18;99464.38;1685153;84;26568;-79
2022/02/18 06:56:28;;;;;;;11.83;2.85;;;;;;;4.92;75.45;99467.03;1682283;83;26527;-77
2022/02/18 06:58:54;;;;;;;10.95;2.87;;;;;;;4.93;74.85;99480.11;1678775;84;25893;-79
2022/02/18 07:01:21;;;;;;;13.98;3.08;;;;;;;4.94;75.31;99468.48;1693046;84;27552;-79
2022/02/18 07:03:47;;;;;;;11.40;3.58;;;;;;;4.97;74.83;99487.20;1663227;83;25893;-80
2022/02/18 07:06:13;;;;;;;15.93;3.50;;;;;;;4.99;74.80;99485.20;1662899;84;26398;-80
2022/02/18 07:08:40;;;;;;;15.05;2.62;;;;;;;5.00;74.72;99489.02;1662375;85;26606;-82
2022/02/18 07:11:06;;;;;;;9.40;2.37;;;;;;;5.04;74.65;99478.86;1663629;85;26559;-83
2022/02/18 07:13:32;;;;;;;13.15;2.47;;;;;;;5.04;73.82;99496.11;1653806;86;28273;-81
2022/02/18 07:16:01;;;;;;;11.05;2.33;;;;;;;5.05;74.30;99489.78;1663412;84;26483;-77
2022/02/18 07:18:27;;;;;;;8.70;2.67;;;;;;;5.06;74.15;99488.30;1651567;84;25738;-78
2022/02/18 07:20:54;;;;;;;15.10;2.80;;;;;;;5.08;73.89;99488.12;1686113;84;25907;-78
2022/02/18 07:23:20;;;;;;;10.25;2.10;;;;;;;5.09;73.25;99484.47;1685565;84;25904;-78
2022/02/18 07:25:47;;;;;;;10.08;2.17;;;;;;;5.09;73.86;99493.23;1680947;84;27504;-78
2022/02/18 07:28:17;;;;;;;10.75;2.37;;;;;;;5.09;73.98;99491.91;1686557;83;25829;-80
2022/02/18 07:30:43;;;;;;;9.85;2.40;;;;;;;5.12;74.33;99496.05;1692076;84;25837;-78
2022/02/18 07:33:09;;;;;;;11.65;2.75;;;;;;;5.14;74.09;99496.69;1692627;84;25853;-78
2022/02/18 07:35:37;;;;;;;7.12;3.00;;;;;;;5.16;73.86;99488.88;1692741;84;25751;-78
2022/02/18 07:38:04;;;;;;;10.38;3.80;;;;;;;5.16;74.32;99504.80;1659314;85;28828;-79
2022/02/18 07:40:30;;;;;;;8.85;2.72;;;;;;;5.18;74.08;99505.94;1679890;84;25769;-78
2022/02/18 07:42:57;;;;;;;13.75;3.27;;;;;;;5.18;73.82;99512.58;1692412;84;25966;-78
2022/02/18 07:45:23;;;;;;;11.15;2.75;;;;;;;5.18;73.70;99505.45;1693520;84;25908;-78
2022/02/18 07:47:57;;;;;;;12.25;3.58;;;;;;;5.18;73.89;99512.08;1664376;84;25991;-79
2022/02/18 07:50:25;;;;;;;8.33;2.75;;;;;;;5.20;73.61;99516.70;1666231;85;27456;-79
2022/02/18 07:52:52;;;;;;;11.45;3.42;;;;;;;5.21;74.14;99525.01;1659774;85;26027;-78
2022/02/18 07:55:19;;;;;;;17.40;3.90;;;;;;;5.24;73.98;99530.44;1659563;84;25912;-79
2022/02/18 07:57:46;;;;;;;20.72;3.80;;;;;;;5.24;73.25;99535.25;1667210;84;25650;-78
2022/02/18 08:00:14;;;;;;;18.52;7.20;;;;;;;5.27;73.46;99540.22;1660129;85;26049;-78
2022/02/18 08:02:41;;;;;;;11.55;4.53;;;;;;;5.28;73.74;99548.48;1676673;84;27524;-81
2022/02/18 08:05:08;;;;;;;18.98;5.33;;;;;;;5.28;73.29;99547.16;1684760;84;25866;-79
2022/02/18 08:07:34;;;;;;;11.40;4.10;;;;;;;5.28;73.52;99553.80;1692407;84;25849;-79
2022/02/18 08:10:00;;;;;;;13.18;5.03;;;;;;;5.29;73.31;99551.48;1692467;84;26497;-78
2022/02/18 08:12:26;;;;;;;12.45;3.83;;;;;;;5.30;73.48;99554.45;1692781;84;25757;-78
2022/02/18 08:14:53;;;;;;;14.28;4.22;;;;;;;5.31;73.15;99543.33;1691441;84;28262;-79
2022/02/18 08:17:19;;;;;;;11.50;3.30;;;;;;;5.32;73.80;99556.42;1659292;85;25948;-79
2022/02/18 08:19:46;;;;;;;8.15;3.17;;;;;;;5.36;73.49;99562.22;1676357;84;25749;-80
2022/02/18 08:22:13;;;;;;;15.28;4.75;;;;;;;5.38;73.41;99569.50;1676584;84;26415;-79
2022/02/18 08:24:40;;;;;;;12.53;3.80;;;;;;;5.41;73.68;99569.96;1681318;84;25937;-79
2022/02/18 08:27:07;;;;;;;23.07;4.00;;;;;;;5.45;73.56;99587.71;1684432;83;27693;-78
2022/02/18 08:29:33;;;;;;;7.25;2.80;;;;;;;5.45;73.99;99585.86;1681307;84;25759;-78
2022/02/18 08:31:59;;;;;;;14.93;3.15;;;;;;;5.51;73.78;99590.14;1682833;84;26685;-79
2022/02/18 08:34:26;;;;;;;12.28;3.42;;;;;;;5.51;73.27;99591.47;1680508;84;25822;-78
2022/02/18 08:36:52;;;;;;;15.28;3.05;;;;;;;5.49;73.13;99597.77;1692772;84;25350;-78
2022/02/18 08:39:19;;;;;;;12.13;3.10;;;;;;;5.50;74.02;99586.66;1659617;84;28287;-79
2022/02/18 08:41:46;;;;;;;16.40;3.50;;;;;;;5.53;73.77;99593.45;1676541;84;25848;-79
2022/02/18 08:44:14;;;;;;;15.30;4.37;;;;;;;5.52;73.50;99589.16;1679258;84;25699;-79
2022/02/18 08:46:41;;;;;;;15.18;4.40;;;;;;;5.49;73.40;99597.77;1693693;84;25876;-78
2022/02/18 08:49:09;;;;;;;9.15;3.77;;;;;;;5.50;73.56;99605.25;1658878;85;25772;-78
2022/02/18 08:51:37;;;;;;;11.65;3.65;;;;;;;5.48;73.51;99614.73;1658692;85;27461;-80
2022/02/18 08:54:06;;;;;;;9.93;2.98;;;;;;;5.48;73.64;99618.71;1662398;85;25899;-79
2022/02/18 08:56:35;;;;;;;9.13;3.67;;;;;;;5.49;73.90;99627.52;1658169;84;26465;-79
2022/02/18 08:59:04;;;;;;;10.23;3.75;;;;;;;5.47;73.46;99632.98;1662668;85;26026;-79
2022/02/18 09:01:30;;;;;;;11.33;3.95;;;;;;;5.44;73.47;99624.55;1658876;85;26020;-78
2022/02/18 09:03:57;;;;;;;27.60;9.85;;;;;;;5.43;73.79;99634.34;1662112;85;27463;-79
2022/02/18 09:06:23;;;;;;;11.55;4.65;;;;;;;5.43;73.60;99635.67;1658719;85;25910;-79
2022/02/18 09:08:50;;;;;;;12.73;3.67;;;;;;;5.43;73.68;99637.52;1659699;85;25951;-79
2022/02/18 09:11:19;;;;;;;15.98;5.87;;;;;;;5.42;73.78;99651.30;1676788;84;26451;-78
2022/02/18 09:13:46;;;;;;;15.95;5.70;;;;;;;5.42;74.07;99645.98;1682157;84;25994;-79
2022/02/18 09:16:15;;;;;;;15.85;4.85;;;;;;;5.43;73.65;99654.78;1692658;83;27079;-79
2022/02/18 09:18:43;;;;;;;15.65;3.58;;;;;;;5.44;73.95;99653.77;1663190;84;25789;-78
2022/02/18 09:21:10;;;;;;;16.32;3.92;;;;;;;5.46;73.30;99654.41;1653575;86;25957;-78
2022/02/18 09:23:36;;;;;;;14.58;4.15;;;;;;;5.46;73.10;99663.22;1660683;84;26507;-78
2022/02/18 09:26:02;;;;;;;15.32;4.65;;;;;;;5.48;73.20;99669.67;1660044;84;25844;-78
2022/02/18 09:28:29;;;;;;;15.03;4.67;;;;;;;5.47;73.64;99676.80;1660571;84;27634;-79
2022/02/18 09:30:56;;;;;;;38.05;13.83;;;;;;;5.48;73.43;99670.50;1653582;86;25918;-78
2022/02/18 09:33:24;;;;;;;103.22;38.38;;;;;;;5.48;73.33;99675.81;1663750;85;25870;-79
2022/02/18 09:35:50;;;;;;;72.67;27.17;;;;;;;5.49;73.10;99677.45;1682062;83;26259;-79
2022/02/18 09:38:17;;;;;;;114.97;49.80;;;;;;;5.47;73.07;99691.41;1679027;84;25980;-79
2022/02/18 09:40:45;;;;;;;30.37;20.17;;;;;;;5.47;73.50;99693.27;1693032;84;28351;-78
2022/02/18 09:43:11;;;;;;;20.52;5.75;;;;;;;5.49;73.73;99695.24;1693846;84;26333;-80
2022/02/18 09:45:38;;;;;;;15.15;4.67;;;;;;;5.47;73.38;99702.56;1693436;84;25793;-78
2022/02/18 09:48:06;;;;;;;21.93;5.83;;;;;;;5.45;73.81;99701.39;1659987;84;25879;-80
2022/02/18 09:50:32;;;;;;;12.00;4.33;;;;;;;5.48;74.05;99702.88;1662158;84;25839;-79
2022/02/18 09:52:58;;;;;;;21.65;6.50;;;;;;;5.48;73.93;99701.54;1661702;85;27454;-79
2022/02/18 09:55:25;;;;;;;16.80;4.97;;;;;;;5.48;73.74;99697.06;1676592;84;26019;-79
2022/02/18 09:57:54;;;;;;;20.52;5.65;;;;;;;5.49;73.86;99700.55;1679915;84;25880;-79
2022/02/18 10:00:21;;;;;;;11.55;4.37;;;;;;;5.51;73.67;99697.71;1693226;84;25984;-79
2022/02/18 10:02:50;;;;;;;12.60;3.72;;;;;;;5.50;73.88;99703.52;1692997;84;25726;-79
2022/02/18 10:05:17;;;;;;;10.25;3.15;;;;;;;5.54;74.29;99700.03;1692535;84;26903;-79
2022/02/18 10:08:06;;;;;;;14.28;3.77;;;;;;;5.55;73.22;99702.50;1693096;84;25977;-80
2022/02/18 10:10:34;;;;;;;14.98;3.35;;;;;;;5.57;73.63;99713.77;1664524;84;25842;-79
2022/02/18 10:13:02;;;;;;;14.38;4.45;;;;;;;5.59;73.17;99711.77;1662280;85;25769;-79
2022/02/18 10:15:45;;;;;;;13.15;3.77;;;;;;;5.59;72.58;99713.09;1666242;85;26119;-79
2022/02/18 10:18:11;;;;;;;19.37;6.30;;;;;;;5.62;72.61;99720.73;1661929;85;28787;-80
2022/02/18 10:20:43;;;;;;;23.52;12.20;;;;;;;5.64;72.42;99717.39;1658533;85;25780;-79
2022/02/18 10:23:10;;;;;;;25.27;9.95;;;;;;;5.67;72.20;99717.51;1662172;85;26533;-79
2022/02/18 10:25:45;;;;;;;16.25;6.62;;;;;;;5.69;71.84;99723.50;1660765;85;25922;-78
2022/02/18 10:28:16;;;;;;;13.08;5.37;;;;;;;5.72;72.57;99721.31;1663026;84;25869;-79
2022/02/18 10:30:44;;;;;;;15.63;5.62;;;;;;;5.74;71.62;99718.47;1659444;85;27463;-78
2022/02/18 10:33:20;;;;;;;12.82;3.98;;;;;;;5.74;71.74;99729.93;1662949;84;25924;-79
2022/02/18 10:35:49;;;;;;;15.38;3.77;;;;;;;5.73;71.71;99726.13;1660082;85;25805;-79
2022/02/18 10:38:17;;;;;;;13.30;3.75;;;;;;;5.71;71.81;99735.58;1661235;85;25830;-79
2022/02/18 10:40:49;;;;;;;15.90;3.90;;;;;;;5.69;71.53;99725.63;1657860;85;25781;-79
2022/02/18 10:43:25;;;;;;;12.98;3.80;;;;;;;5.71;70.42;99723.62;1669957;84;27525;-79
2022/02/18 10:46:04;;;;;;;15.55;3.95;;;;;;;5.72;70.14;99721.31;1658700;85;26553;-78
2022/02/18 10:48:48;;;;;;;28.23;12.93;;;;;;;5.73;71.03;99718.96;1665292;84;25849;-79
2022/02/18 10:51:24;;;;;;;23.27;8.48;;;;;;;5.74;71.09;99718.47;1666620;84;25937;-78
2022/02/18 10:53:51;;;;;;;12.05;5.75;;;;;;;5.76;70.99;99727.92;1661706;85;25316;-79
2022/02/18 10:56:25;;;;;;;20.90;7.25;;;;;;;5.77;70.80;99729.59;1660676;85;27484;-79
2022/02/18 10:58:52;;;;;;;21.00;6.37;;;;;;;5.82;71.51;99733.02;1668832;84;25880;-79
2022/02/18 11:01:25;;;;;;;11.70;4.00;;;;;;;5.86;70.72;99725.07;1660519;85;25372;-78
2022/02/18 11:04:00;;;;;;;12.70;4.08;;;;;;;5.89;71.06;99733.50;1661910;84;26260;-79
2022/02/18 11:06:32;;;;;;;17.57;6.25;;;;;;;5.88;70.22;99731.84;1661899;85;25884;-79
2022/02/18 11:09:08;;;;;;;13.45;6.08;;;;;;;5.88;70.85;99731.03;1660527;85;27487;-79
2022/02/18 11:11:42;;;;;;;22.50;9.48;;;;;;;5.90;70.47;99729.02;1666562;84;25907;-79
2022/02/18 11:14:13;;;;;;;19.30;7.28;;;;;;;5.96;71.03;99726.98;1658802;85;25888;-79
2022/02/18 11:16:43;;;;;;;13.38;4.00;;;;;;;6.07;70.71;99722.57;1663201;85;25643;-79
2022/02/18 11:19:09;;;;;;;13.60;3.62;;;;;;;6.19;69.69;99721.95;1658919;85;26062;-79
2022/02/18 11:21:36;;;;;;;12.05;3.75;;;;;;;6.26;68.99;99725.22;1660762;85;28036;-79
2022/02/18 11:24:05;;;;;;;19.67;6.30;;;;;;;6.26;67.58;99716.75;1661016;85;25761;-79
2022/02/18 11:26:32;;;;;;;18.73;5.15;;;;;;;6.26;67.00;99720.73;1665031;84;26026;-79
2022/02/18 11:29:02;;;;;;;15.28;5.80;;;;;;;6.27;66.67;99717.05;1661054;85;26139;-78
2022/02/18 11:31:41;;;;;;;18.57;7.10;;;;;;;6.32;66.47;99708.05;1659227;85;25852;-80
2022/02/18 11:34:31;;;;;;;17.45;6.30;;;;;;;6.39;66.92;99713.47;1662128;85;27475;-79
2022/02/18 11:37:48;;;;;;;13.75;3.30;;;;;;;6.46;66.88;99710.41;1664733;84;25933;-79
2022/02/18 11:40:56;;;;;;;12.58;4.65;;;;;;;6.57;67.43;99692.64;1666803;84;25968;-80
2022/02/18 11:43:30;;;;;;;12.40;3.92;;;;;;;6.68;66.58;99706.33;1664135;84;26449;-79